This is the latest recevied weather packets stored in our database for station/object PE1RXF-13. If no packets are shown the sender has not sent any weather packets the latest 10 day(s).
| Time | Temp. | Humidity | Pressure | Rain* | Wind** | Luminosity | Snow |
|---|---|---|---|---|---|---|---|
| 1777657455 | 23.33° C | 25% | 1021 hPa | 0 mm | - | 18 W/m² | - |
| 1777655656 | 25° C | 24% | 1021.2 hPa | 0 mm | - | 62 W/m² | - |
| 1777653855 | 25° C | 23% | 1021.5 hPa | 0 mm | - | 90 W/m² | - |
| 1777650255 | 25° C | 22% | 1022.2 hPa | 0 mm | - | 152 W/m² | - |
| 1777646656 | 25.56° C | 21% | 1022.9 hPa | 0 mm | - | 200 W/m² | - |
| 1777644857 | 25° C | 23% | 1023.1 hPa | 0 mm | - | 236 W/m² | - |
| 1777637655 | 24.44° C | 24% | 1024.8 hPa | 0 mm | - | 341 W/m² | - |
| 1777635855 | 23.33° C | 24% | 1025.2 hPa | 0 mm | - | 340 W/m² | - |
| 1777634055 | 23.33° C | 25% | 1025.6 hPa | 0 mm | - | 347 W/m² | - |
| 1777632255 | 22.78° C | 24% | 1026.1 hPa | 0 mm | - | 332 W/m² | - |
| 1777630455 | 22.22° C | 26% | 1026.3 hPa | 0 mm | - | 298 W/m² | - |
| 1777626857 | 20.56° C | 26% | 1027.1 hPa | 0 mm | - | 208 W/m² | - |
| 1777623255 | 19.44° C | 31% | 1027.4 hPa | 0 mm | - | 175 W/m² | - |
| 1777621455 | 18.33° C | 34% | 1027.5 hPa | 0 mm | - | 149 W/m² | - |
| 1777619656 | 16.67° C | 35% | 1027.6 hPa | 0 mm | - | 126 W/m² | - |
| 1777617855 | 15° C | 40% | 1027.7 hPa | 0 mm | - | 96 W/m² | - |
| 1777616055 | 13.89° C | 44% | 1027.8 hPa | 0 mm | - | 68 W/m² | - |
| 1777612455 | 7.22° C | 82% | 1027.6 hPa | 0 mm | - | 11 W/m² | - |
| 1777610654 | 5° C | 99% | 1027.6 hPa | 0 mm | - | 7 W/m² | - |
| 1777608856 | 5° C | 99% | 1027.6 hPa | 0 mm | - | 2 W/m² | - |
| 1777608855 | 5° C | 99% | 1027.6 hPa | 0 mm | - | 2 W/m² | - |
| 1777605254 | 5.56° C | 94% | 1027.5 hPa | 0 mm | - | 0 W/m² | - |
| 1777603455 | 5.56° C | 96% | 1027.6 hPa | 0 mm | - | 0 W/m² | - |
| 1777601656 | 6.67° C | 78% | 1027.5 hPa | 0 mm | - | 0 W/m² | - |
| 1777601655 | 6.67° C | 78% | 1027.5 hPa | 0 mm | - | 0 W/m² | - |
* Rain latest hour (hover to see other rain measurements)
** Current wind speed in m/s (hover to see current wind gust speed)